sensor_id;sensor_type;location;lat;lon;timestamp;P1;durP1;ratioP1;P2;durP2;ratioP2
48941;SDS011;35340;52.378;4.648;2023-01-29T00:09:55;3.22;;;1.70;;
48941;SDS011;35340;52.378;4.648;2023-01-29T00:12:51;2.58;;;1.58;;
48941;SDS011;35340;52.378;4.648;2023-01-29T01:09:15;3.05;;;1.50;;
48941;SDS011;35340;52.378;4.648;2023-01-29T03:54:38;1.85;;;1.10;;
48941;SDS011;35340;52.378;4.648;2023-01-29T04:06:03;1.45;;;1.00;;
48941;SDS011;35340;52.378;4.648;2023-01-29T05:13:56;1.13;;;0.85;;
48941;SDS011;35340;52.378;4.648;2023-01-29T05:16:37;1.45;;;1.10;;
48941;SDS011;35340;52.378;4.648;2023-01-29T05:19:10;1.30;;;1.10;;
48941;SDS011;35340;52.378;4.648;2023-01-29T05:25:31;1.27;;;0.88;;
48941;SDS011;35340;52.378;4.648;2023-01-29T05:43:46;1.30;;;0.90;;
48941;SDS011;35340;52.378;4.648;2023-01-29T07:00:40;7.93;;;3.03;;
48941;SDS011;35340;52.378;4.648;2023-01-29T07:05:53;19.52;;;6.90;;
48941;SDS011;35340;52.378;4.648;2023-01-29T07:53:53;5.88;;;2.75;;
48941;SDS011;35340;52.378;4.648;2023-01-29T07:56:18;6.47;;;2.78;;
48941;SDS011;35340;52.378;4.648;2023-01-29T07:58:44;6.75;;;2.95;;
48941;SDS011;35340;52.378;4.648;2023-01-29T08:01:09;8.27;;;3.30;;
48941;SDS011;35340;52.378;4.648;2023-01-29T08:03:35;7.30;;;3.38;;
48941;SDS011;35340;52.378;4.648;2023-01-29T08:06:01;6.45;;;3.38;;
48941;SDS011;35340;52.378;4.648;2023-01-29T08:08:29;6.38;;;2.90;;
48941;SDS011;35340;52.378;4.648;2023-01-29T08:10:59;7.00;;;2.83;;
48941;SDS011;35340;52.378;4.648;2023-01-29T08:13:28;7.03;;;2.83;;
48941;SDS011;35340;52.378;4.648;2023-01-29T08:15:58;6.07;;;3.10;;
48941;SDS011;35340;52.378;4.648;2023-01-29T08:18:27;6.60;;;3.00;;
48941;SDS011;35340;52.378;4.648;2023-01-29T08:20:59;9.32;;;3.28;;
48941;SDS011;35340;52.378;4.648;2023-01-29T08:23:25;5.10;;;2.88;;
48941;SDS011;35340;52.378;4.648;2023-01-29T08:25:53;6.90;;;2.65;;
48941;SDS011;35340;52.378;4.648;2023-01-29T08:28:22;4.80;;;2.72;;
48941;SDS011;35340;52.378;4.648;2023-01-29T08:30:47;3.85;;;2.60;;
48941;SDS011;35340;52.378;4.648;2023-01-29T09:00:04;5.97;;;3.03;;
48941;SDS011;35340;52.378;4.648;2023-01-29T09:13:31;5.65;;;2.88;;
48941;SDS011;35340;52.378;4.648;2023-01-29T09:27:00;4.10;;;2.15;;
48941;SDS011;35340;52.378;4.648;2023-01-29T12:24:24;4.78;;;1.10;;
48941;SDS011;35340;52.378;4.648;2023-01-29T12:35:16;12.07;;;1.52;;
48941;SDS011;35340;52.378;4.648;2023-01-29T12:37:49;7.57;;;1.65;;
48941;SDS011;35340;52.378;4.648;2023-01-29T12:40:24;9.43;;;1.52;;
48941;SDS011;35340;52.378;4.648;2023-01-29T12:42:55;9.25;;;1.42;;
48941;SDS011;35340;52.378;4.648;2023-01-29T12:45:26;4.07;;;1.40;;
48941;SDS011;35340;52.378;4.648;2023-01-29T12:47:58;7.38;;;1.33;;
48941;SDS011;35340;52.378;4.648;2023-01-29T12:50:38;4.82;;;1.30;;
48941;SDS011;35340;52.378;4.648;2023-01-29T12:58:47;5.35;;;1.10;;
48941;SDS011;35340;52.378;4.648;2023-01-29T13:01:26;4.53;;;1.23;;
48941;SDS011;35340;52.378;4.648;2023-01-29T13:04:17;3.72;;;1.35;;
48941;SDS011;35340;52.378;4.648;2023-01-29T13:07:08;6.22;;;1.17;;
48941;SDS011;35340;52.378;4.648;2023-01-29T13:09:40;7.72;;;1.33;;
48941;SDS011;35340;52.378;4.648;2023-01-29T13:12:14;4.32;;;1.23;;
48941;SDS011;35340;52.378;4.648;2023-01-29T13:17:27;4.82;;;0.98;;
48941;SDS011;35340;52.378;4.648;2023-01-29T13:20:10;3.43;;;1.50;;
48941;SDS011;35340;52.378;4.648;2023-01-29T13:22:55;6.88;;;2.10;;
48941;SDS011;35340;52.378;4.648;2023-01-29T13:25:28;4.78;;;1.20;;
48941;SDS011;35340;52.378;4.648;2023-01-29T13:27:54;4.50;;;1.50;;
48941;SDS011;35340;52.378;4.648;2023-01-29T13:30:26;6.15;;;1.50;;
48941;SDS011;35340;52.378;4.648;2023-01-29T13:32:57;4.82;;;1.30;;
48941;SDS011;35340;52.378;4.648;2023-01-29T13:35:34;4.90;;;1.40;;
48941;SDS011;35340;52.378;4.648;2023-01-29T13:38:02;4.13;;;1.40;;
48941;SDS011;35340;52.378;4.648;2023-01-29T13:40:29;2.20;;;1.25;;
48941;SDS011;35340;52.378;4.648;2023-01-29T13:42:58;4.72;;;1.52;;
48941;SDS011;35340;52.378;4.648;2023-01-29T13:45:41;2.58;;;1.35;;
48941;SDS011;35340;52.378;4.648;2023-01-29T13:48:09;5.13;;;1.70;;
48941;SDS011;35340;52.378;4.648;2023-01-29T13:51:01;2.90;;;1.40;;
48941;SDS011;35340;52.378;4.648;2023-01-29T13:53:39;4.03;;;1.42;;
48941;SDS011;35340;52.378;4.648;2023-01-29T13:58:56;2.97;;;1.48;;
48941;SDS011;35340;52.378;4.648;2023-01-29T14:04:27;3.70;;;1.65;;
48941;SDS011;35340;52.378;4.648;2023-01-29T14:06:58;3.67;;;1.60;;
48941;SDS011;35340;52.378;4.648;2023-01-29T14:12:04;3.47;;;1.65;;
48941;SDS011;35340;52.378;4.648;2023-01-29T14:17:15;2.60;;;1.48;;
48941;SDS011;35340;52.378;4.648;2023-01-29T14:19:52;2.53;;;1.42;;
48941;SDS011;35340;52.378;4.648;2023-01-29T14:22:23;2.42;;;1.30;;
48941;SDS011;35340;52.378;4.648;2023-01-29T14:25:04;2.85;;;1.50;;
48941;SDS011;35340;52.378;4.648;2023-01-29T14:27:37;6.60;;;1.50;;
48941;SDS011;35340;52.378;4.648;2023-01-29T14:30:06;5.03;;;2.13;;
48941;SDS011;35340;52.378;4.648;2023-01-29T14:32:34;3.55;;;1.60;;
48941;SDS011;35340;52.378;4.648;2023-01-29T14:35:09;2.75;;;1.60;;
48941;SDS011;35340;52.378;4.648;2023-01-29T14:37:44;2.95;;;1.55;;
48941;SDS011;35340;52.378;4.648;2023-01-29T14:40:20;2.20;;;1.40;;
48941;SDS011;35340;52.378;4.648;2023-01-29T14:45:46;3.00;;;1.77;;
48941;SDS011;35340;52.378;4.648;2023-01-29T14:51:43;3.10;;;1.60;;
48941;SDS011;35340;52.378;4.648;2023-01-29T15:02:39;6.28;;;1.70;;
48941;SDS011;35340;52.378;4.648;2023-01-29T15:05:11;2.60;;;1.70;;
48941;SDS011;35340;52.378;4.648;2023-01-29T15:10:25;2.90;;;1.83;;
48941;SDS011;35340;52.378;4.648;2023-01-29T15:13:11;2.13;;;1.60;;
48941;SDS011;35340;52.378;4.648;2023-01-29T15:15:45;2.45;;;1.65;;
48941;SDS011;35340;52.378;4.648;2023-01-29T15:18:16;2.60;;;1.50;;
48941;SDS011;35340;52.378;4.648;2023-01-29T15:20:47;3.92;;;1.77;;
48941;SDS011;35340;52.378;4.648;2023-01-29T15:26:01;3.97;;;1.60;;
48941;SDS011;35340;52.378;4.648;2023-01-29T15:28:29;3.85;;;1.90;;
48941;SDS011;35340;52.378;4.648;2023-01-29T15:30:56;3.53;;;1.55;;
48941;SDS011;35340;52.378;4.648;2023-01-29T15:33:26;2.33;;;1.50;;
48941;SDS011;35340;52.378;4.648;2023-01-29T15:35:56;2.40;;;1.52;;
48941;SDS011;35340;52.378;4.648;2023-01-29T15:38:23;3.00;;;1.65;;
48941;SDS011;35340;52.378;4.648;2023-01-29T15:40:57;3.75;;;1.70;;
48941;SDS011;35340;52.378;4.648;2023-01-29T15:43:36;1.88;;;1.40;;
48941;SDS011;35340;52.378;4.648;2023-01-29T15:46:15;3.90;;;1.60;;
48941;SDS011;35340;52.378;4.648;2023-01-29T15:48:50;2.53;;;1.50;;
48941;SDS011;35340;52.378;4.648;2023-01-29T15:51:19;5.85;;;1.63;;
48941;SDS011;35340;52.378;4.648;2023-01-29T15:53:50;2.17;;;1.42;;
48941;SDS011;35340;52.378;4.648;2023-01-29T15:56:20;3.88;;;1.83;;
48941;SDS011;35340;52.378;4.648;2023-01-29T15:58:52;2.67;;;1.70;;
48941;SDS011;35340;52.378;4.648;2023-01-29T16:01:19;2.55;;;1.60;;
48941;SDS011;35340;52.378;4.648;2023-01-29T16:03:47;3.72;;;1.83;;
48941;SDS011;35340;52.378;4.648;2023-01-29T16:06:14;3.45;;;1.80;;
48941;SDS011;35340;52.378;4.648;2023-01-29T16:08:40;2.25;;;1.42;;
48941;SDS011;35340;52.378;4.648;2023-01-29T16:11:10;3.15;;;1.60;;
48941;SDS011;35340;52.378;4.648;2023-01-29T16:13:38;2.78;;;1.60;;
48941;SDS011;35340;52.378;4.648;2023-01-29T16:16:25;3.58;;;1.95;;
48941;SDS011;35340;52.378;4.648;2023-01-29T16:18:53;2.97;;;1.63;;
48941;SDS011;35340;52.378;4.648;2023-01-29T16:24:08;2.70;;;1.58;;
48941;SDS011;35340;52.378;4.648;2023-01-29T16:26:41;3.03;;;1.80;;
48941;SDS011;35340;52.378;4.648;2023-01-29T16:29:09;3.00;;;1.85;;
48941;SDS011;35340;52.378;4.648;2023-01-29T16:31:38;3.22;;;1.73;;
48941;SDS011;35340;52.378;4.648;2023-01-29T16:37:02;3.20;;;1.88;;
48941;SDS011;35340;52.378;4.648;2023-01-29T17:10:31;2.03;;;1.70;;
48941;SDS011;35340;52.378;4.648;2023-01-29T17:27:28;3.35;;;1.85;;
48941;SDS011;35340;52.378;4.648;2023-01-29T17:54:11;4.90;;;2.08;;
48941;SDS011;35340;52.378;4.648;2023-01-29T18:07:36;4.50;;;2.15;;
48941;SDS011;35340;52.378;4.648;2023-01-29T18:10:23;3.73;;;2.00;;
48941;SDS011;35340;52.378;4.648;2023-01-29T18:19:11;3.97;;;2.00;;
48941;SDS011;35340;52.378;4.648;2023-01-29T18:25:34;3.90;;;2.10;;
48941;SDS011;35340;52.378;4.648;2023-01-29T18:32:29;3.83;;;2.00;;
48941;SDS011;35340;52.378;4.648;2023-01-29T18:37:55;3.30;;;2.40;;
48941;SDS011;35340;52.378;4.648;2023-01-29T19:27:35;7.35;;;2.65;;
48941;SDS011;35340;52.378;4.648;2023-01-29T19:30:00;7.50;;;2.75;;
48941;SDS011;35340;52.378;4.648;2023-01-29T19:32:26;5.38;;;2.67;;
48941;SDS011;35340;52.378;4.648;2023-01-29T19:34:54;5.55;;;2.60;;
48941;SDS011;35340;52.378;4.648;2023-01-29T19:37:27;5.68;;;2.58;;
48941;SDS011;35340;52.378;4.648;2023-01-29T19:40:06;7.28;;;2.78;;
48941;SDS011;35340;52.378;4.648;2023-01-29T19:42:45;12.10;;;2.88;;
48941;SDS011;35340;52.378;4.648;2023-01-29T19:45:18;8.07;;;2.83;;
48941;SDS011;35340;52.378;4.648;2023-01-29T19:47:49;8.68;;;2.80;;
48941;SDS011;35340;52.378;4.648;2023-01-29T19:50:15;12.60;;;3.53;;
48941;SDS011;35340;52.378;4.648;2023-01-29T19:52:43;12.25;;;3.05;;
48941;SDS011;35340;52.378;4.648;2023-01-29T19:55:30;8.70;;;3.30;;
48941;SDS011;35340;52.378;4.648;2023-01-29T22:20:20;4.85;;;2.05;;
48941;SDS011;35340;52.378;4.648;2023-01-29T22:23:08;5.05;;;2.20;;
48941;SDS011;35340;52.378;4.648;2023-01-29T22:26:03;5.03;;;2.60;;
48941;SDS011;35340;52.378;4.648;2023-01-29T22:28:30;6.35;;;2.45;;
48941;SDS011;35340;52.378;4.648;2023-01-29T22:31:05;5.45;;;2.30;;
48941;SDS011;35340;52.378;4.648;2023-01-29T22:33:37;6.25;;;2.80;;
48941;SDS011;35340;52.378;4.648;2023-01-29T22:36:20;5.07;;;2.60;;
48941;SDS011;35340;52.378;4.648;2023-01-29T22:38:50;4.60;;;2.55;;
48941;SDS011;35340;52.378;4.648;2023-01-29T22:45:06;6.45;;;2.70;;
48941;SDS011;35340;52.378;4.648;2023-01-29T22:55:19;6.10;;;2.70;;
48941;SDS011;35340;52.378;4.648;2023-01-29T23:01:44;7.13;;;2.60;;
48941;SDS011;35340;52.378;4.648;2023-01-29T23:08:31;4.00;;;2.53;;
48941;SDS011;35340;52.378;4.648;2023-01-29T23:11:04;5.75;;;2.50;;
48941;SDS011;35340;52.378;4.648;2023-01-29T23:17:10;5.60;;;2.67;;
48941;SDS011;35340;52.378;4.648;2023-01-29T23:20:05;4.90;;;2.10;;
48941;SDS011;35340;52.378;4.648;2023-01-29T23:22:57;2.78;;;1.75;;
48941;SDS011;35340;52.378;4.648;2023-01-29T23:26:09;5.15;;;2.33;;
48941;SDS011;35340;52.378;4.648;2023-01-29T23:28:59;3.67;;;2.17;;
48941;SDS011;35340;52.378;4.648;2023-01-29T23:51:53;4.35;;;2.20;;
48941;SDS011;35340;52.378;4.648;2023-01-29T23:57:06;5.20;;;2.20;;
